1899 Major Hurricane NOT_NAMED (1899215N12329)


IBTrACS version v04r00. Visit IBTrACS website for data access.
Please direct all questions to the IBTrACS Q and A forum

Storm track - Intensity - Wind Radii - Intensity Data - Source Data - All data

Summary Information

Storm ID 1899215N12329
Start Aug 3 00Z
Landfall Aug 8 12Z, Aug 12 12Z, Aug 18 06Z
Max Intensity 130 kt (Aug 7 18Z), 930 mb (Aug 7 18Z)
End Sep 4 18Z
ATCF IDs AL031899
Track status Best track data.

Storm track plot

Map of storm track

Intensity plots

Map of storm track

Radial wind information

No radial wind information for this storm


Position and Intensity Table

BASIN ISO_TIME_________ NATURE LAT LON WMO WIND WMO PRES USA WIND USA PRES
degrees north degrees east kts mb kts mb
NA 1899-08-03 00:00:00 TS 11.70 -31.00 35 35
NA 03:00:00 TS 11.74 -31.68 40
NA 06:00:00 TS 11.80 -32.40 45 45
NA 09:00:00 TS 11.89 -33.18 47
NA 12:00:00 TS 12.00 -34.00 50 50
NA 15:00:00 TS 12.10 -34.84 52
NA 18:00:00 TS 12.20 -35.70 55 995 55 995
NA 21:00:00 TS 12.30 -36.57 57
NA 1899-08-04 00:00:00 TS 12.40 -37.40 60 60
NA 03:00:00 TS 12.51 -38.12 60
NA 06:00:00 TS 12.60 -38.80 60 60
NA 09:00:00 TS 12.64 -39.53 60
NA 12:00:00 TS 12.70 -40.30 60 60
NA 15:00:00 TS 12.82 -41.11 60
NA 18:00:00 TS 13.00 -42.00 60 60
NA 21:00:00 TS 13.26 -43.01 60
NA 1899-08-05 00:00:00 TS 13.50 -44.00 60 60
NA 03:00:00 TS 13.61 -44.79 60
NA 06:00:00 TS 13.70 -45.50 60 60
NA 09:00:00 TS 13.84 -46.24 60
NA 12:00:00 TS 14.00 -47.00 60 60
NA 15:00:00 TS 14.15 -47.82 62
NA 18:00:00 TS 14.30 -48.70 65 65
NA 21:00:00 TS 14.46 -49.64 67
NA 1899-08-06 00:00:00 TS 14.60 -50.60 70 70
NA 03:00:00 TS 14.70 -51.51 72
NA 06:00:00 TS 14.80 -52.40 75 75
NA 09:00:00 TS 14.94 -53.31 77
NA 12:00:00 TS 15.10 -54.20 80 80
NA 15:00:00 TS 15.25 -55.02 85
NA 18:00:00 TS 15.40 -55.80 90 90
NA 21:00:00 TS 15.56 -56.60 95
NA 1899-08-07 00:00:00 TS 15.70 -57.40 100 100
NA 03:00:00 TS 15.80 -58.21 105
NA 06:00:00 TS 15.90 -59.00 110 110
NA 09:00:00 TS 16.04 -59.76 115
NA 12:00:00 TS 16.20 -60.50 120 120
NA 15:00:00 TS 16.34 -61.26 125
NA 18:00:00 TS 16.50 -62.00 130 930 130 930
NA 21:00:00 TS 16.68 -62.71 130
NA 1899-08-08 00:00:00 TS 16.90 -63.40 130 130
NA 03:00:00 TS 17.13 -64.10 127
NA 06:00:00 TS 17.40 -64.80 125 125
NA 09:00:00 TS 17.69 -65.52 122
NA 12:00:00 TS 18.00 -66.20 120 940 120 940
NA 15:00:00 TS 18.32 -66.79 112
NA 18:00:00 TS 18.60 -67.30 105 105
NA 21:00:00 TS 18.76 -67.72 105
NA 1899-08-09 00:00:00 TS 18.90 -68.10 105 105
NA 03:00:00 TS 19.09 -68.49 105
NA 06:00:00 TS 19.30 -68.90 105 105
NA 09:00:00 TS 19.50 -69.35 105
NA 12:00:00 TS 19.70 -69.80 105 105
NA 15:00:00 TS 19.91 -70.21 105
NA 18:00:00 TS 20.10 -70.60 105 105
NA 21:00:00 TS 20.26 -71.00 105
NA 1899-08-10 00:00:00 TS 20.40 -71.40 105 105
NA 03:00:00 TS 20.55 -71.80 105
NA 06:00:00 TS 20.70 -72.20 105 105
NA 09:00:00 TS 20.84 -72.61 105
NA 12:00:00 TS 21.00 -73.00 105 105
NA 15:00:00 TS 21.18 -73.35 105
NA 18:00:00 TS 21.40 -73.70 105 105
NA 21:00:00 TS 21.69 -74.09 105
NA 1899-08-11 00:00:00 TS 22.00 -74.50 105 105
NA 03:00:00 TS 22.26 -74.91 105
NA 06:00:00 TS 22.50 -75.30 105 105
NA 09:00:00 TS 22.76 -75.67 105
NA 12:00:00 TS 23.00 -76.00 105 105
NA 15:00:00 TS 23.21 -76.27 105
NA 18:00:00 TS 23.40 -76.50 105 105
NA 21:00:00 TS 23.60 -76.76 105
NA 1899-08-12 00:00:00 TS 23.80 -77.00 105 105
NA 03:00:00 TS 24.01 -77.22 105
NA 06:00:00 TS 24.20 -77.40 105 105
NA 09:00:00 TS 24.33 -77.56 105
NA 12:00:00 TS 24.50 -77.70 105 105
NA 15:00:00 TS 24.79 -77.86 105
NA 18:00:00 TS 25.10 -78.00 105 105
NA 21:00:00 TS 25.35 -78.11 105
NA 1899-08-13 00:00:00 TS 25.60 -78.20 105 105
NA 03:00:00 TS 25.88 -78.30 105
NA 06:00:00 TS 26.20 -78.40 105 105
NA 09:00:00 TS 26.60 -78.50 105
NA 12:00:00 TS 27.00 -78.60 105 105
NA 15:00:00 TS 27.31 -78.70 105
NA 18:00:00 TS 27.60 -78.80 105 105
NA 21:00:00 TS 27.94 -78.91 105
NA 1899-08-14 00:00:00 TS 28.30 -79.00 105 105
NA 03:00:00 TS 28.65 -79.07 105
NA 06:00:00 TS 29.00 -79.10 105 105
NA 09:00:00 TS 29.36 -79.07 105
NA 12:00:00 TS 29.70 -79.00 105 105
NA 15:00:00 TS 30.01 -78.96 105
NA 18:00:00 TS 30.30 -78.90 105 105
NA 21:00:00 TS 30.61 -78.82 105
NA 1899-08-15 00:00:00 TS 30.90 -78.70 105 105
NA 03:00:00 TS 31.11 -78.56 105
NA 06:00:00 TS 31.30 -78.40 105 105
NA 09:00:00 TS 31.49 -78.21 105
NA 12:00:00 TS 31.70 -78.00 105 105
NA 15:00:00 TS 31.95 -77.76 105
NA 18:00:00 TS 32.20 -77.50 105 105
NA 21:00:00 TS 32.42 -77.21 105
NA 1899-08-16 00:00:00 TS 32.60 -76.90 105 105
NA 03:00:00 TS 32.71 -76.56 105
NA 06:00:00 TS 32.80 -76.20 105 105
NA 09:00:00 TS 32.89 -75.83 105
NA 12:00:00 TS 33.00 -75.50 105 105
NA 15:00:00 TS 33.13 -75.23 105
NA 18:00:00 TS 33.30 -75.00 105 105
NA 21:00:00 TS 33.49 -74.78 105
NA 1899-08-17 00:00:00 TS 33.70 -74.60 105 105
NA 03:00:00 TS 33.90 -74.46 105
NA 06:00:00 TS 34.10 -74.40 105 105
NA 09:00:00 TS 34.31 -74.40 105
NA 12:00:00 TS 34.50 -74.50 105 105
NA 15:00:00 TS 34.66 -74.71 105
NA 18:00:00 TS 34.80 -75.00 105 105
NA 21:00:00 TS 34.91 -75.35 105
NA 1899-08-18 00:00:00 TS 35.10 -75.70 105 105
NA 01:00:00 TS 35.20 -75.80 105 105
NA 03:00:00 TS 35.40 -75.94 98
NA 06:00:00 TS 35.70 -76.00 90 90
NA 09:00:00 TS 36.04 -75.89 85
NA 12:00:00 TS 36.30 -75.70 80 80
NA 15:00:00 TS 36.39 -75.59 77
NA 18:00:00 TS 36.40 -75.50 75 75
NA 21:00:00 TS 36.41 -75.41 75
NA 1899-08-19 00:00:00 TS 36.40 -75.30 75 75
NA 03:00:00 TS 36.39 -75.16 72
NA 06:00:00 TS 36.40 -75.00 70 70
NA 09:00:00 TS 36.41 -74.88 70
NA 12:00:00 TS 36.50 -74.70 70 70
NA 15:00:00 TS 36.70 -74.41 70
NA 18:00:00 TS 37.00 -74.00 70 70
NA 21:00:00 TS 37.34 -73.47 70
NA 1899-08-20 00:00:00 TS 37.70 -72.90 70 70
NA 03:00:00 TS 38.01 -72.41 70
NA 06:00:00 TS 38.30 -71.90 70 70
NA 09:00:00 TS 38.56 -71.35 70
NA 12:00:00 TS 38.80 -70.70 70 70
NA 15:00:00 TS 39.08 -69.89 70
NA 18:00:00 TS 39.30 -69.00 70 70
NA 21:00:00 TS 39.38 -68.16 70
NA 1899-08-21 00:00:00 TS 39.40 -67.30 70 70
NA 03:00:00 TS 39.44 -66.36 70
NA 06:00:00 TS 39.50 -65.40 70 70
NA 09:00:00 TS 39.62 -64.47 70
NA 12:00:00 TS 39.70 -63.50 70 70
NA 15:00:00 TS 39.63 -62.44 67
NA 18:00:00 TS 39.50 -61.30 65 65
NA 21:00:00 TS 39.40 -60.12 62
NA 1899-08-22 00:00:00 ET 39.30 -58.90 60 60
NA 03:00:00 ET 39.21 -57.69 57
NA 06:00:00 ET 39.10 -56.50 55 55
NA 09:00:00 ET 38.92 -55.32 52
NA 12:00:00 ET 38.70 -54.30 50 50
NA 15:00:00 ET 38.50 -53.50 50
NA 18:00:00 ET 38.30 -52.90 50 50
NA 21:00:00 ET 38.11 -52.43 50
NA 1899-08-23 00:00:00 ET 37.90 -52.00 50 50
NA 03:00:00 ET 37.62 -51.45 47
NA 06:00:00 ET 37.30 -50.90 45 45
NA 09:00:00 ET 37.01 -50.44 45
NA 12:00:00 ET 36.70 -50.00 45 45
NA 15:00:00 ET 36.35 -49.49 45
NA 18:00:00 ET 36.00 -49.00 45 45
NA 21:00:00 ET 35.70 -48.60 45
NA 1899-08-24 00:00:00 ET 35.40 -48.20 45 45
NA 03:00:00 ET 35.03 -47.73 42
NA 06:00:00 ET 34.70 -47.20 40 40
NA 09:00:00 ET 34.46 -46.60 40
NA 12:00:00 ET 34.30 -46.00 40 40
NA 15:00:00 ET 34.21 -45.48 40
NA 18:00:00 ET 34.20 -45.00 40 40
NA 21:00:00 ET 34.22 -44.53 40
NA 1899-08-25 00:00:00 ET 34.30 -44.10 40 40
NA 03:00:00 ET 34.41 -43.66 40
NA 06:00:00 ET 34.60 -43.30 40 40
NA 09:00:00 ET 34.95 -43.09 40
NA 12:00:00 ET 35.30 -43.00 40 40
NA 15:00:00 ET 35.47 -42.96 40
NA 18:00:00 ET 35.60 -43.00 40 40
NA 21:00:00 ET 35.80 -43.09 40
NA 1899-08-26 00:00:00 TS 36.00 -43.20 40 40
NA 03:00:00 TS 36.16 -43.25 40
NA 06:00:00 TS 36.30 -43.30 40 40
NA 09:00:00 TS 36.40 -43.39 40
NA 12:00:00 TS 36.50 -43.50 40 40
NA 15:00:00 TS 36.63 -43.59 40
NA 18:00:00 TS 36.80 -43.70 40 40
NA 21:00:00 TS 37.00 -43.85 40
NA 1899-08-27 00:00:00 TS 37.20 -44.00 40 40
NA 03:00:00 TS 37.36 -44.10 40
NA 06:00:00 TS 37.50 -44.20 40 40
NA 09:00:00 TS 37.59 -44.35 40
NA 12:00:00 TS 37.70 -44.50 40 40
NA 15:00:00 TS 37.93 -44.61 40
NA 18:00:00 TS 38.20 -44.70 40 40
NA 21:00:00 TS 38.44 -44.81 40
NA 1899-08-28 00:00:00 TS 38.70 -44.90 40 40
NA 03:00:00 TS 39.04 -44.96 40
NA 06:00:00 TS 39.40 -45.00 40 40
NA 09:00:00 TS 39.73 -45.03 40
NA 12:00:00 TS 40.00 -45.00 40 40
NA 15:00:00 TS 40.17 -44.89 40
NA 18:00:00 TS 40.30 -44.70 40 40
NA 21:00:00 TS 40.47 -44.42 40
NA 1899-08-29 00:00:00 TS 40.60 -44.10 40 40
NA 03:00:00 TS 40.63 -43.79 40
NA 06:00:00 TS 40.60 -43.50 40 40
NA 09:00:00 TS 40.55 -43.23 40
NA 12:00:00 TS 40.50 -43.00 40 40
NA 15:00:00 TS 40.49 -42.84 40
NA 18:00:00 TS 40.50 -42.70 40 40
NA 21:00:00 TS 40.50 -42.51 40
NA 1899-08-30 00:00:00 TS 40.50 -42.30 40 40
NA 03:00:00 TS 40.51 -42.10 40
NA 06:00:00 TS 40.50 -41.90 40 40
NA 09:00:00 TS 40.41 -41.69 40
NA 12:00:00 TS 40.30 -41.50 40 40
NA 15:00:00 TS 40.24 -41.34 40
NA 18:00:00 TS 40.20 -41.20 40 40
NA 21:00:00 TS 40.15 -41.06 40
NA 1899-08-31 00:00:00 TS 40.10 -40.90 40 40
NA 03:00:00 TS 40.04 -40.71 40
NA 06:00:00 TS 40.00 -40.50 40 40
NA 09:00:00 TS 40.00 -40.27 40
NA 12:00:00 TS 40.00 -40.00 40 40
NA 15:00:00 TS 39.95 -39.66 40
NA 18:00:00 TS 39.90 -39.30 40 40
NA 21:00:00 TS 39.89 -39.01 40
NA 1899-09-01 00:00:00 TS 39.90 -38.70 40 40
NA 03:00:00 TS 39.89 -38.32 40
NA 06:00:00 TS 39.90 -37.90 40 40
NA 09:00:00 TS 39.96 -37.49 40
NA 12:00:00 TS 40.00 -37.00 40 40
NA 15:00:00 TS 39.97 -36.36 40
NA 18:00:00 TS 39.90 -35.70 40 40
NA 21:00:00 TS 39.81 -35.21 42
NA 1899-09-02 00:00:00 TS 39.70 -34.70 45 45
NA 03:00:00 TS 39.62 -34.02 47
NA 06:00:00 TS 39.50 -33.30 50 50
NA 09:00:00 TS 39.29 -32.61 52
NA 12:00:00 TS 39.00 -32.00 55 55
NA 15:00:00 TS 38.64 -31.50 57
NA 18:00:00 TS 38.30 -31.10 60 60
NA 21:00:00 TS 38.08 -30.80 62
NA 1899-09-03 00:00:00 TS 37.90 -30.50 65 65
NA 03:00:00 TS 37.69 -30.07 67
NA 06:00:00 TS 37.50 -29.60 70 70
NA 09:00:00 TS 37.33 -29.17 70
NA 12:00:00 TS 37.30 -28.70 70 70
NA 15:00:00 TS 37.44 -28.18 67
NA 18:00:00 TS 37.80 -27.50 65 65
NA 21:00:00 TS 38.25 -26.63 62
NA 1899-09-04 00:00:00 ET 39.00 -25.50 60 60
NA 03:00:00 ET 40.08 -24.14 57
NA 06:00:00 ET 41.50 -22.50 55 55
NA 09:00:00 ET 43.14 -20.50 52
NA 12:00:00 ET 45.00 -18.50 50 50
NA 15:00:00 ET 46.97 -16.89 47
NA 18:00:00 ET 49.00 -15.50 45 45

Source Information

Agency Information
USA hurdat2-1851-2018-051019.txt:Line=9250:UNNAMED
TOKYO
CMA
HKO
NEWDELHI
REUNION
BOM
NADI
WELLINGTON
DS824
TD9636
TD9635
NEUMANN
MLC

All available IBTrACS Data

SEASON BASIN SUBBASIN ISO_TIME_________ NATURE LAT LON WMO WIND WMO PRES WMO AGENCY DIST2LAND LANDFALL IFLAG USA AGENCY USA ATCF_ID USA LAT USA LON USA RECORD USA STATUS USA WIND USA PRES USA SSHS STORM SPEED STORM DIR
Year degrees north degrees east kts mb km km degrees north degrees east kts mb 1 kts degrees
1899 NA NA 1899-08-03 00:00:00 TS 11.70 -31.00 35 hurdat_atl 1500 1500 O_____________ hurdat_atl AL031899 11.70 -31.00 TS 35 0 13 273
1899 NA NA 03:00:00 TS 11.74 -31.68 1574 1574 P_____________ AL031899 11.74 -31.68 TS 40 0 14 274
1899 NA NA 06:00:00 TS 11.80 -32.40 45 hurdat_atl 1645 1645 O_____________ hurdat_atl AL031899 11.80 -32.40 TS 45 0 15 276
1899 NA NA 09:00:00 TS 11.89 -33.18 1728 1728 P_____________ AL031899 11.89 -33.18 TS 47 0 16 277
1899 NA NA 12:00:00 TS 12.00 -34.00 50 hurdat_atl 1788 1769 O_____________ hurdat_atl AL031899 12.00 -34.00 TS 50 0 16 277
1899 NA NA 15:00:00 TS 12.10 -34.84 1769 1751 P_____________ AL031899 12.10 -34.84 TS 52 0 17 277
1899 NA NA 18:00:00 TS 12.20 -35.70 55 995 hurdat_atl 1751 1740 O_____________ hurdat_atl AL031899 12.20 -35.70 TS 55 995 0 17 277
1899 NA NA 21:00:00 TS 12.30 -36.57 1739 1730 P_____________ AL031899 12.30 -36.57 TS 57 0 17 277
1899 NA NA 1899-08-04 00:00:00 TS 12.40 -37.40 60 hurdat_atl 1734 1718 O_____________ hurdat_atl AL031899 12.40 -37.40 TS 60 0 15 278
1899 NA NA 03:00:00 TS 12.51 -38.12 1718 1659 P_____________ AL031899 12.51 -38.12 TS 60 0 14 278
1899 NA NA 06:00:00 TS 12.60 -38.80 60 hurdat_atl 1659 1596 O_____________ hurdat_atl AL031899 12.60 -38.80 TS 60 0 14 276
1899 NA NA 09:00:00 TS 12.64 -39.53 1596 1532 P_____________ AL031899 12.64 -39.53 TS 60 0 15 274
1899 NA NA 12:00:00 TS 12.70 -40.30 60 hurdat_atl 1532 1471 O_____________ hurdat_atl AL031899 12.70 -40.30 TS 60 0 16 277
1899 NA NA 15:00:00 TS 12.82 -41.11 1471 1420 P_____________ AL031899 12.82 -41.11 TS 60 0 17 280
1899 NA NA 18:00:00 TS 13.00 -42.00 60 hurdat_atl 1412 1351 O_____________ hurdat_atl AL031899 13.00 -42.00 TS 60 0 19 283
1899 NA NA 21:00:00 TS 13.26 -43.01 1359 1305 P_____________ AL031899 13.26 -43.01 TS 60 0 20 284
1899 NA NA 1899-08-05 00:00:00 TS 13.50 -44.00 60 hurdat_atl 1305 1269 O_____________ hurdat_atl AL031899 13.50 -44.00 TS 60 0 18 282
1899 NA NA 03:00:00 TS 13.61 -44.79 1262 1229 P_____________ AL031899 13.61 -44.79 TS 60 0 15 278
1899 NA NA 06:00:00 TS 13.70 -45.50 60 hurdat_atl 1229 1191 O_____________ hurdat_atl AL031899 13.70 -45.50 TS 60 0 14 279
1899 NA NA 09:00:00 TS 13.84 -46.24 1191 1161 P_____________ AL031899 13.84 -46.24 TS 60 0 15 282
1899 NA NA 12:00:00 TS 14.00 -47.00 60 hurdat_atl 1161 1127 O_____________ hurdat_atl AL031899 14.00 -47.00 TS 60 0 16 281
1899 NA NA 15:00:00 TS 14.15 -47.82 1127 1107 P_____________ AL031899 14.15 -47.82 TS 62 0 17 280
1899 NA NA 18:00:00 TS 14.30 -48.70 65 hurdat_atl 1103 1076 O_____________ hurdat_atl AL031899 14.30 -48.70 HU 65 1 18 280
1899 NA NA 21:00:00 TS 14.46 -49.64 1086 1055 P_____________ AL031899 14.46 -49.64 HU 67 1 19 279
1899 NA NA 1899-08-06 00:00:00 TS 14.60 -50.60 70 hurdat_atl 1051 1028 O_____________ hurdat_atl AL031899 14.60 -50.60 HU 70 1 18 278
1899 NA NA 03:00:00 TS 14.70 -51.51 1028 1014 P_____________ AL031899 14.70 -51.51 HU 72 1 18 277
1899 NA NA 06:00:00 TS 14.80 -52.40 75 hurdat_atl 1016 958 O_____________ hurdat_atl AL031899 14.80 -52.40 HU 75 1 18 278
1899 NA NA 09:00:00 TS 14.94 -53.31 958 886 P_____________ AL031899 14.94 -53.31 HU 77 1 18 280
1899 NA NA 12:00:00 TS 15.10 -54.20 80 hurdat_atl 886 822 O_____________ hurdat_atl AL031899 15.10 -54.20 HU 80 1 17 281
1899 NA NA 15:00:00 TS 15.25 -55.02 822 770 P_____________ AL031899 15.25 -55.02 HU 85 2 16 281
1899 NA NA 18:00:00 TS 15.40 -55.80 90 hurdat_atl 770 718 O_____________ hurdat_atl AL031899 15.40 -55.80 HU 90 2 16 281
1899 NA NA 21:00:00 TS 15.56 -56.60 726 682 P_____________ AL031899 15.56 -56.60 HU 95 2 16 281
1899 NA NA 1899-08-07 00:00:00 TS 15.70 -57.40 100 hurdat_atl 682 646 O_____________ hurdat_atl AL031899 15.70 -57.40 HU 100 3 16 279
1899 NA NA 03:00:00 TS 15.80 -58.21 646 621 P_____________ AL031899 15.80 -58.21 HU 105 3 16 277
1899 NA NA 06:00:00 TS 15.90 -59.00 110 hurdat_atl 621 609 O_____________ hurdat_atl AL031899 15.90 -59.00 HU 110 3 15 279
1899 NA NA 09:00:00 TS 16.04 -59.76 607 586 P_____________ AL031899 16.04 -59.76 HU 115 4 15 282
1899 NA CS 12:00:00 TS 16.20 -60.50 120 hurdat_atl 586 513 O_____________ hurdat_atl AL031899 16.20 -60.50 HU 120 4 15 282
1899 NA CS 15:00:00 TS 16.34 -61.26 503 426 P_____________ AL031899 16.34 -61.26 HU 125 4 15 282
1899 NA CS 18:00:00 TS 16.50 -62.00 130 930 hurdat_atl 426 350 O_____________ hurdat_atl AL031899 16.50 -62.00 HU 130 930 4 14 284
1899 NA CS 21:00:00 TS 16.68 -62.71 350 274 P_____________ AL031899 16.68 -62.71 HU 130 4 14 287
1899 NA CS 1899-08-08 00:00:00 TS 16.90 -63.40 130 hurdat_atl 274 201 O_____________ hurdat_atl AL031899 16.90 -63.40 HU 130 4 14 289
1899 NA CS 03:00:00 TS 17.13 -64.10 201 123 P_____________ AL031899 17.13 -64.10 HU 127 4 14 290
1899 NA CS 06:00:00 TS 17.40 -64.80 125 hurdat_atl 123 46 O_____________ hurdat_atl AL031899 17.40 -64.80 HU 125 4 15 292
1899 NA CS 09:00:00 TS 17.69 -65.52 46 0 P_____________ AL031899 17.69 -65.52 HU 122 4 15 294
1899 NA NA 12:00:00 TS 18.00 -66.20 120 940 hurdat_atl 0 0 O_____________ hurdat_atl AL031899 18.00 -66.20 HU 120 940 4 14 297
1899 NA NA 15:00:00 TS 18.32 -66.79 0 0 P_____________ AL031899 18.32 -66.79 HU 112 3 12 300
1899 NA NA 18:00:00 TS 18.60 -67.30 105 hurdat_atl 22 22 O_____________ hurdat_atl AL031899 18.60 -67.30 HU 105 3 10 297
1899 NA NA 21:00:00 TS 18.76 -67.72 61 38 P_____________ AL031899 18.76 -67.72 HU 105 3 8 292
1899 NA NA 1899-08-09 00:00:00 TS 18.90 -68.10 105 hurdat_atl 39 30 O_____________ hurdat_atl AL031899 18.90 -68.10 HU 105 3 8 294
1899 NA NA 03:00:00 TS 19.09 -68.49 35 30 P_____________ AL031899 19.09 -68.49 HU 105 3 9 298
1899 NA NA 06:00:00 TS 19.30 -68.90 105 hurdat_atl 33 15 O_____________ hurdat_atl AL031899 19.30 -68.90 HU 105 3 9 297
1899 NA NA 09:00:00 TS 19.50 -69.35 24 23 P_____________ AL031899 19.50 -69.35 HU 105 3 9 295
1899 NA NA 12:00:00 TS 19.70 -69.80 105 hurdat_atl 23 15 O_____________ hurdat_atl AL031899 19.70 -69.80 HU 105 3 9 297
1899 NA NA 15:00:00 TS 19.91 -70.21 30 24 P_____________ AL031899 19.91 -70.21 HU 105 3 9 298
1899 NA NA 18:00:00 TS 20.10 -70.60 105 hurdat_atl 33 33 O_____________ hurdat_atl AL031899 20.10 -70.60 HU 105 3 8 295
1899 NA NA 21:00:00 TS 20.26 -71.00 55 55 P_____________ AL031899 20.26 -71.00 HU 105 3 8 292
1899 NA NA 1899-08-10 00:00:00 TS 20.40 -71.40 105 hurdat_atl 67 67 O_____________ hurdat_atl AL031899 20.40 -71.40 HU 105 3 8 291
1899 NA NA 03:00:00 TS 20.55 -71.80 78 78 P_____________ AL031899 20.55 -71.80 HU 105 3 8 292
1899 NA NA 06:00:00 TS 20.70 -72.20 105 hurdat_atl 98 56 O_____________ hurdat_atl AL031899 20.70 -72.20 HU 105 3 8 291
1899 NA NA 09:00:00 TS 20.84 -72.61 56 10 P_____________ AL031899 20.84 -72.61 HU 105 3 8 292
1899 NA NA 12:00:00 TS 21.00 -73.00 105 hurdat_atl 10 0 O_____________ hurdat_atl AL031899 21.00 -73.00 HU 105 3 8 296
1899 NA NA 15:00:00 TS 21.18 -73.35 11 11 P_____________ AL031899 21.18 -73.35 HU 105 3 8 302
1899 NA NA 18:00:00 TS 21.40 -73.70 105 hurdat_atl 33 33 O_____________ hurdat_atl AL031899 21.40 -73.70 HU 105 3 9 307
1899 NA NA 21:00:00 TS 21.69 -74.09 78 78 P_____________ AL031899 21.69 -74.09 HU 105 3 10 309
1899 NA NA 1899-08-11 00:00:00 TS 22.00 -74.50 105 hurdat_atl 130 130 O_____________ hurdat_atl AL031899 22.00 -74.50 HU 105 3 9 307
1899 NA NA 03:00:00 TS 22.26 -74.91 162 158 P_____________ AL031899 22.26 -74.91 HU 105 3 9 304
1899 NA NA 06:00:00 TS 22.50 -75.30 105 hurdat_atl 170 167 O_____________ hurdat_atl AL031899 22.50 -75.30 HU 105 3 9 305
1899 NA NA 09:00:00 TS 22.76 -75.67 186 181 P_____________ AL031899 22.76 -75.67 HU 105 3 8 308
1899 NA NA 12:00:00 TS 23.00 -76.00 105 hurdat_atl 184 178 O_____________ hurdat_atl AL031899 23.00 -76.00 HU 105 3 7 310
1899 NA NA 15:00:00 TS 23.21 -76.27 186 173 P_____________ AL031899 23.21 -76.27 HU 105 3 6 311
1899 NA NA 18:00:00 TS 23.40 -76.50 105 hurdat_atl 173 142 O_____________ hurdat_atl AL031899 23.40 -76.50 HU 105 3 6 311
1899 NA NA 21:00:00 TS 23.60 -76.76 135 105 P_____________ AL031899 23.60 -76.76 HU 105 3 6 311
1899 NA NA 1899-08-12 00:00:00 TS 23.80 -77.00 105 hurdat_atl 105 75 O_____________ hurdat_atl AL031899 23.80 -77.00 HU 105 3 6 314
1899 NA NA 03:00:00 TS 24.01 -77.22 75 45 P_____________ AL031899 24.01 -77.22 HU 105 3 5 318
1899 NA NA 06:00:00 TS 24.20 -77.40 105 hurdat_atl 45 30 O_____________ hurdat_atl AL031899 24.20 -77.40 HU 105 3 5 316
1899 NA NA 09:00:00 TS 24.33 -77.56 24 0 P_____________ AL031899 24.33 -77.56 HU 105 3 4 318
1899 NA NA 12:00:00 TS 24.50 -77.70 105 hurdat_atl 0 0 O_____________ hurdat_atl AL031899 24.50 -77.70 HU 105 3 5 329
1899 NA NA 15:00:00 TS 24.79 -77.86 0 0 P_____________ AL031899 24.79 -77.86 HU 105 3 7 336
1899 NA NA 18:00:00 TS 25.10 -78.00 105 hurdat_atl 0 0 O_____________ hurdat_atl AL031899 25.10 -78.00 HU 105 3 6 338
1899 NA NA 21:00:00 TS 25.35 -78.11 22 22 P_____________ AL031899 25.35 -78.11 HU 105 3 5 340
1899 NA NA 1899-08-13 00:00:00 TS 25.60 -78.20 105 hurdat_atl 56 56 O_____________ hurdat_atl AL031899 25.60 -78.20 HU 105 3 6 342
1899 NA NA 03:00:00 TS 25.88 -78.30 91 91 P_____________ AL031899 25.88 -78.30 HU 105 3 6 343
1899 NA NA 06:00:00 TS 26.20 -78.40 105 hurdat_atl 126 126 O_____________ hurdat_atl AL031899 26.20 -78.40 HU 105 3 7 346
1899 NA NA 09:00:00 TS 26.60 -78.50 150 138 P_____________ AL031899 26.60 -78.50 HU 105 3 8 347
1899 NA NA 12:00:00 TS 27.00 -78.60 105 hurdat_atl 140 136 O_____________ hurdat_atl AL031899 27.00 -78.60 HU 105 3 7 346
1899 NA NA 15:00:00 TS 27.31 -78.70 140 139 P_____________ AL031899 27.31 -78.70 HU 105 3 6 344
1899 NA NA 18:00:00 TS 27.60 -78.80 105 hurdat_atl 144 144 O_____________ hurdat_atl AL031899 27.60 -78.80 HU 105 3 7 344
1899 NA NA 21:00:00 TS 27.94 -78.91 148 148 P_____________ AL031899 27.94 -78.91 HU 105 3 7 346
1899 NA NA 1899-08-14 00:00:00 TS 28.30 -79.00 105 hurdat_atl 148 136 O_____________ hurdat_atl AL031899 28.30 -79.00 HU 105 3 7 348
1899 NA NA 03:00:00 TS 28.65 -79.07 138 137 P_____________ AL031899 28.65 -79.07 HU 105 3 7 353
1899 NA NA 06:00:00 TS 29.00 -79.10 105 hurdat_atl 147 147 O_____________ hurdat_atl AL031899 29.00 -79.10 HU 105 3 7 2
1899 NA NA 09:00:00 TS 29.36 -79.07 169 169 P_____________ AL031899 29.36 -79.07 HU 105 3 7 7
1899 NA NA 12:00:00 TS 29.70 -79.00 105 hurdat_atl 195 195 O_____________ hurdat_atl AL031899 29.70 -79.00 HU 105 3 7 9
1899 NA NA 15:00:00 TS 30.01 -78.96 209 209 P_____________ AL031899 30.01 -78.96 HU 105 3 6 8
1899 NA NA 18:00:00 TS 30.30 -78.90 105 hurdat_atl 234 234 O_____________ hurdat_atl AL031899 30.30 -78.90 HU 105 3 6 12
1899 NA NA 21:00:00 TS 30.61 -78.82 246 225 P_____________ AL031899 30.61 -78.82 HU 105 3 6 16
1899 NA NA 1899-08-15 00:00:00 TS 30.90 -78.70 105 hurdat_atl 225 213 O_____________ hurdat_atl AL031899 30.90 -78.70 HU 105 3 5 23
1899 NA NA 03:00:00 TS 31.11 -78.56 213 209 P_____________ AL031899 31.11 -78.56 HU 105 3 5 33
1899 NA NA 06:00:00 TS 31.30 -78.40 105 hurdat_atl 209 201 O_____________ hurdat_atl AL031899 31.30 -78.40 HU 105 3 5 38
1899 NA NA 09:00:00 TS 31.49 -78.21 201 189 P_____________ AL031899 31.49 -78.21 HU 105 3 5 40
1899 NA NA 12:00:00 TS 31.70 -78.00 105 hurdat_atl 195 186 O_____________ hurdat_atl AL031899 31.70 -78.00 HU 105 3 6 40
1899 NA NA 15:00:00 TS 31.95 -77.76 193 186 P_____________ AL031899 31.95 -77.76 HU 105 3 7 40
1899 NA NA 18:00:00 TS 32.20 -77.50 105 hurdat_atl 194 179 O_____________ hurdat_atl AL031899 32.20 -77.50 HU 105 3 7 45
1899 NA NA 21:00:00 TS 32.42 -77.21 183 172 P_____________ AL031899 32.42 -77.21 HU 105 3 6 52
1899 NA NA 1899-08-16 00:00:00 TS 32.60 -76.90 105 hurdat_atl 177 174 O_____________ hurdat_atl AL031899 32.60 -76.90 HU 105 3 6 62
1899 NA NA 03:00:00 TS 32.71 -76.56 186 186 P_____________ AL031899 32.71 -76.56 HU 105 3 6 71
1899 NA NA 06:00:00 TS 32.80 -76.20 105 hurdat_atl 207 205 O_____________ hurdat_atl AL031899 32.80 -76.20 HU 105 3 6 74
1899 NA NA 09:00:00 TS 32.89 -75.83 210 206 P_____________ AL031899 32.89 -75.83 HU 105 3 6 71
1899 NA NA 12:00:00 TS 33.00 -75.50 105 hurdat_atl 210 205 O_____________ hurdat_atl AL031899 33.00 -75.50 HU 105 3 6 65
1899 NA NA 15:00:00 TS 33.13 -75.23 214 202 P_____________ AL031899 33.13 -75.23 HU 105 3 5 54
1899 NA NA 18:00:00 TS 33.30 -75.00 105 hurdat_atl 208 205 O_____________ hurdat_atl AL031899 33.30 -75.00 HU 105 3 5 46
1899 NA NA 21:00:00 TS 33.49 -74.78 205 205 P_____________ AL031899 33.49 -74.78 HU 105 3 5 40
1899 NA NA 1899-08-17 00:00:00 TS 33.70 -74.60 105 hurdat_atl 205 198 O_____________ hurdat_atl AL031899 33.70 -74.60 HU 105 3 5 33
1899 NA NA 03:00:00 TS 33.90 -74.46 198 195 P_____________ AL031899 33.90 -74.46 HU 105 3 4 23
1899 NA NA 06:00:00 TS 34.10 -74.40 105 hurdat_atl 195 185 O_____________ hurdat_atl AL031899 34.10 -74.40 HU 105 3 4 8
1899 NA NA 09:00:00 TS 34.31 -74.40 185 164 P_____________ AL031899 34.31 -74.40 HU 105 3 4 349
1899 NA NA 12:00:00 TS 34.50 -74.50 105 hurdat_atl 164 143 O_____________ hurdat_atl AL031899 34.50 -74.50 HU 105 3 4 324
1899 NA NA 15:00:00 TS 34.66 -74.71 135 109 P_____________ AL031899 34.66 -74.71 HU 105 3 5 306
1899 NA NA 18:00:00 TS 34.80 -75.00 105 hurdat_atl 109 86 O_____________ hurdat_atl AL031899 34.80 -75.00 HU 105 3 6 295
1899 NA NA 21:00:00 TS 34.91 -75.35 81 49 P_____________ AL031899 34.91 -75.35 HU 105 3 6 298
1899 NA NA 1899-08-18 00:00:00 TS 35.10 -75.70 105 hurdat_atl 49 35 O_____________ hurdat_atl AL031899 35.10 -75.70 HU 105 3 7 308
1899 NA NA 01:00:00 TS 35.20 -75.80 105 hurdat_atl 35 14 O_____________ hurdat_atl AL031899 35.20 -75.80 L HU 105 3 7 327
1899 NA NA 03:00:00 TS 35.40 -75.94 14 0 P_____________ AL031899 35.40 -75.94 HU 98 3 6 342
1899 NA NA 06:00:00 TS 35.70 -76.00 90 hurdat_atl 0 0 O_____________ hurdat_atl AL031899 35.70 -76.00 HU 90 2 6 4
1899 NA NA 09:00:00 TS 36.04 -75.89 14 0 P_____________ AL031899 36.04 -75.89 HU 85 2 6 22
1899 NA NA 12:00:00 TS 36.30 -75.70 80 hurdat_atl 8 8 O_____________ hurdat_atl AL031899 36.30 -75.70 HU 80 1 4 34
1899 NA NA 15:00:00 TS 36.39 -75.59 17 17 P_____________ AL031899 36.39 -75.59 HU 77 1 2 58
1899 NA NA 18:00:00 TS 36.40 -75.50 75 hurdat_atl 26 26 O_____________ hurdat_atl AL031899 36.40 -75.50 HU 75 1 1 85
1899 NA NA 21:00:00 TS 36.41 -75.41 34 34 P_____________ AL031899 36.41 -75.41 HU 75 1 2 90
1899 NA NA 1899-08-19 00:00:00 TS 36.40 -75.30 75 hurdat_atl 42 42 O_____________ hurdat_atl AL031899 36.40 -75.30 HU 75 1 2 94
1899 NA NA 03:00:00 TS 36.39 -75.16 49 49 P_____________ AL031899 36.39 -75.16 HU 72 1 2 90
1899 NA NA 06:00:00 TS 36.40 -75.00 70 hurdat_atl 66 66 O_____________ hurdat_atl AL031899 36.40 -75.00 HU 70 1 2 85
1899 NA NA 09:00:00 TS 36.41 -74.88 74 74 P_____________ AL031899 36.41 -74.88 HU 70 1 3 67
1899 NA NA 12:00:00 TS 36.50 -74.70 70 hurdat_atl 95 95 O_____________ hurdat_atl AL031899 36.50 -74.70 HU 70 1 5 52
1899 NA NA 15:00:00 TS 36.70 -74.41 128 128 P_____________ AL031899 36.70 -74.41 HU 70 1 8 48
1899 NA NA 18:00:00 TS 37.00 -74.00 70 hurdat_atl 159 159 O_____________ hurdat_atl AL031899 37.00 -74.00 HU 70 1 10 50
1899 NA NA 21:00:00 TS 37.34 -73.47 179 179 P_____________ AL031899 37.34 -73.47 HU 70 1 11 51
1899 NA NA 1899-08-20 00:00:00 TS 37.70 -72.90 70 hurdat_atl 203 203 O_____________ hurdat_atl AL031899 37.70 -72.90 HU 70 1 11 51
1899 NA NA 03:00:00 TS 38.01 -72.41 234 231 P_____________ AL031899 38.01 -72.41 HU 70 1 10 53
1899 NA NA 06:00:00 TS 38.30 -71.90 70 hurdat_atl 246 246 O_____________ hurdat_atl AL031899 38.30 -71.90 HU 70 1 10 57
1899 NA NA 09:00:00 TS 38.56 -71.35 265 265 P_____________ AL031899 38.56 -71.35 HU 70 1 11 62
1899 NA NA 12:00:00 TS 38.80 -70.70 70 hurdat_atl 275 273 O_____________ hurdat_atl AL031899 38.80 -70.70 HU 70 1 13 65
1899 NA NA 15:00:00 TS 39.08 -69.89 275 272 P_____________ AL031899 39.08 -69.89 HU 70 1 14 69
1899 NA NA 18:00:00 TS 39.30 -69.00 70 hurdat_atl 280 280 O_____________ hurdat_atl AL031899 39.30 -69.00 HU 70 1 14 77
1899 NA NA 21:00:00 TS 39.38 -68.16 297 297 P_____________ AL031899 39.38 -68.16 HU 70 1 13 86
1899 NA NA 1899-08-21 00:00:00 TS 39.40 -67.30 70 hurdat_atl 342 342 O_____________ hurdat_atl AL031899 39.40 -67.30 HU 70 1 14 87
1899 NA NA 03:00:00 TS 39.44 -66.36 396 396 P_____________ AL031899 39.44 -66.36 HU 70 1 15 86
1899 NA NA 06:00:00 TS 39.50 -65.40 70 hurdat_atl 445 434 O_____________ hurdat_atl AL031899 39.50 -65.40 HU 70 1 15 83
1899 NA NA 09:00:00 TS 39.62 -64.47 438 432 P_____________ AL031899 39.62 -64.47 HU 70 1 15 82
1899 NA NA 12:00:00 TS 39.70 -63.50 70 hurdat_atl 448 448 O_____________ hurdat_atl AL031899 39.70 -63.50 HU 70 1 16 90
1899 NA NA 15:00:00 TS 39.63 -62.44 495 495 P_____________ AL031899 39.63 -62.44 HU 67 1 17 97
1899 NA NA 18:00:00 TS 39.50 -61.30 65 hurdat_atl 555 555 O_____________ hurdat_atl AL031899 39.50 -61.30 HU 65 1 18 97
1899 NA NA 21:00:00 TS 39.40 -60.12 625 625 P_____________ AL031899 39.40 -60.12 HU 62 0 19 96
1899 NA NA 1899-08-22 00:00:00 ET 39.30 -58.90 60 hurdat_atl 679 679 O_____________ hurdat_atl AL031899 39.30 -58.90 EX 60 -4 19 96
1899 NA NA 03:00:00 ET 39.21 -57.69 723 723 P_____________ AL031899 39.21 -57.69 EX 57 -4 19 96
1899 NA NA 06:00:00 ET 39.10 -56.50 55 hurdat_atl 776 776 O_____________ hurdat_atl AL031899 39.10 -56.50 EX 55 -4 19 99
1899 NA NA 09:00:00 ET 38.92 -55.32 847 847 P_____________ AL031899 38.92 -55.32 EX 52 -4 18 103
1899 NA NA 12:00:00 ET 38.70 -54.30 50 hurdat_atl 880 879 O_____________ hurdat_atl AL031899 38.70 -54.30 EX 50 -4 15 106
1899 NA NA 15:00:00 ET 38.50 -53.50 900 900 P_____________ AL031899 38.50 -53.50 EX 50 -4 12 110
1899 NA NA 18:00:00 ET 38.30 -52.90 50 hurdat_atl 923 923 O_____________ hurdat_atl AL031899 38.30 -52.90 EX 50 -4 9 115
1899 NA NA 21:00:00 ET 38.11 -52.43 947 947 P_____________ AL031899 38.11 -52.43 EX 50 -4 8 119
1899 NA NA 1899-08-23 00:00:00 ET 37.90 -52.00 50 hurdat_atl 972 972 O_____________ hurdat_atl AL031899 37.90 -52.00 EX 50 -4 9 123
1899 NA NA 03:00:00 ET 37.62 -51.45 1011 1011 P_____________ AL031899 37.62 -51.45 EX 47 -4 11 125
1899 NA NA 06:00:00 ET 37.30 -50.90 45 hurdat_atl 1051 1051 O_____________ hurdat_atl AL031899 37.30 -50.90 EX 45 -4 10 127
1899 NA NA 09:00:00 ET 37.01 -50.44 1092 1092 P_____________ AL031899 37.01 -50.44 EX 45 -4 9 130
1899 NA NA 12:00:00 ET 36.70 -50.00 45 hurdat_atl 1132 1132 O_____________ hurdat_atl AL031899 36.70 -50.00 EX 45 -4 10 131
1899 NA NA 15:00:00 ET 36.35 -49.49 1175 1175 P_____________ AL031899 36.35 -49.49 EX 45 -4 11 131
1899 NA NA 18:00:00 ET 36.00 -49.00 45 hurdat_atl 1229 1229 O_____________ hurdat_atl AL031899 36.00 -49.00 EX 45 -4 10 132
1899 NA NA 21:00:00 ET 35.70 -48.60 1271 1271 P_____________ AL031899 35.70 -48.60 EX 45 -4 9 133
1899 NA NA 1899-08-24 00:00:00 ET 35.40 -48.20 45 hurdat_atl 1313 1313 O_____________ hurdat_atl AL031899 35.40 -48.20 EX 45 -4 10 133
1899 NA NA 03:00:00 ET 35.03 -47.73 1369 1369 P_____________ AL031899 35.03 -47.73 EX 42 -4 11 131
1899 NA NA 06:00:00 ET 34.70 -47.20 40 hurdat_atl 1415 1415 O_____________ hurdat_atl AL031899 34.70 -47.20 EX 40 -4 11 122
1899 NA NA 09:00:00 ET 34.46 -46.60 1455 1455 P_____________ AL031899 34.46 -46.60 EX 40 -4 11 112
1899 NA NA 12:00:00 ET 34.30 -46.00 40 hurdat_atl 1495 1495 O_____________ hurdat_atl AL031899 34.30 -46.00 EX 40 -4 10 105
1899 NA NA 15:00:00 ET 34.21 -45.48 1523 1523 P_____________ AL031899 34.21 -45.48 EX 40 -4 8 97
1899 NA NA 18:00:00 ET 34.20 -45.00 40 hurdat_atl 1541 1541 O_____________ hurdat_atl AL031899 34.20 -45.00 EX 40 -4 8 89
1899 NA NA 21:00:00 ET 34.22 -44.53 1560 1558 P_____________ AL031899 34.22 -44.53 EX 40 -4 7 82
1899 NA NA 1899-08-25 00:00:00 ET 34.30 -44.10 40 hurdat_atl 1566 1566 O_____________ hurdat_atl AL031899 34.30 -44.10 EX 40 -4 7 76
1899 NA NA 03:00:00 ET 34.41 -43.66 1573 1571 P_____________ AL031899 34.41 -43.66 EX 40 -4 7 66
1899 NA NA 06:00:00 ET 34.60 -43.30 40 hurdat_atl 1571 1550 O_____________ hurdat_atl AL031899 34.60 -43.30 EX 40 -4 7 41
1899 NA NA 09:00:00 ET 34.95 -43.09 1550 1516 P_____________ AL031899 34.95 -43.09 EX 40 -4 7 19
1899 NA NA 12:00:00 ET 35.30 -43.00 40 hurdat_atl 1516 1497 O_____________ hurdat_atl AL031899 35.30 -43.00 EX 40 -4 5 12
1899 NA NA 15:00:00 ET 35.47 -42.96 1497 1488 P_____________ AL031899 35.47 -42.96 EX 40 -4 3 0
1899 NA NA 18:00:00 ET 35.60 -43.00 40 hurdat_atl 1488 1464 O_____________ hurdat_atl AL031899 35.60 -43.00 EX 40 -4 3 342
1899 NA NA 21:00:00 ET 35.80 -43.09 1464 1441 P_____________ AL031899 35.80 -43.09 EX 40 -4 4 338
1899 NA NA 1899-08-26 00:00:00 TS 36.00 -43.20 40 hurdat_atl 1441 1422 O_____________ hurdat_atl AL031899 36.00 -43.20 TS 40 0 4 341
1899 NA NA 03:00:00 TS 36.16 -43.25 1417 1407 P_____________ AL031899 36.16 -43.25 TS 40 0 3 346
1899 NA NA 06:00:00 TS 36.30 -43.30 40 hurdat_atl 1407 1393 O_____________ hurdat_atl AL031899 36.30 -43.30 TS 40 0 3 335
1899 NA NA 09:00:00 TS 36.40 -43.39 1393 1379 P_____________ AL031899 36.40 -43.39 TS 40 0 3 320
1899 NA NA 12:00:00 TS 36.50 -43.50 40 hurdat_atl 1379 1365 O_____________ hurdat_atl AL031899 36.50 -43.50 TS 40 0 3 325
1899 NA NA 15:00:00 TS 36.63 -43.59 1365 1341 P_____________ AL031899 36.63 -43.59 TS 40 0 3 333
1899 NA NA 18:00:00 TS 36.80 -43.70 40 hurdat_atl 1341 1318 O_____________ hurdat_atl AL031899 36.80 -43.70 TS 40 0 4 331
1899 NA NA 21:00:00 TS 37.00 -43.85 1318 1289 P_____________ AL031899 37.00 -43.85 TS 40 0 5 329
1899 NA NA 1899-08-27 00:00:00 TS 37.20 -44.00 40 hurdat_atl 1289 1266 O_____________ hurdat_atl AL031899 37.20 -44.00 TS 40 0 4 332
1899 NA NA 03:00:00 TS 37.36 -44.10 1266 1252 P_____________ AL031899 37.36 -44.10 TS 40 0 3 333
1899 NA NA 06:00:00 TS 37.50 -44.20 40 hurdat_atl 1252 1238 O_____________ hurdat_atl AL031899 37.50 -44.20 TS 40 0 3 318
1899 NA NA 09:00:00 TS 37.59 -44.35 1233 1219 P_____________ AL031899 37.59 -44.35 TS 40 0 3 310
1899 NA NA 12:00:00 TS 37.70 -44.50 40 hurdat_atl 1219 1195 O_____________ hurdat_atl AL031899 37.70 -44.50 TS 40 0 4 329
1899 NA NA 15:00:00 TS 37.93 -44.61 1195 1163 P_____________ AL031899 37.93 -44.61 TS 40 0 5 342
1899 NA NA 18:00:00 TS 38.20 -44.70 40 hurdat_atl 1163 1139 O_____________ hurdat_atl AL031899 38.20 -44.70 TS 40 0 5 342
1899 NA NA 21:00:00 TS 38.44 -44.81 1139 1107 P_____________ AL031899 38.44 -44.81 TS 40 0 5 342
1899 NA NA 1899-08-28 00:00:00 TS 38.70 -44.90 40 hurdat_atl 1107 1075 O_____________ hurdat_atl AL031899 38.70 -44.90 TS 40 0 6 348
1899 NA NA 03:00:00 TS 39.04 -44.96 1075 1039 P_____________ AL031899 39.04 -44.96 TS 40 0 7 354
1899 NA NA 06:00:00 TS 39.40 -45.00 40 hurdat_atl 1039 1012 O_____________ hurdat_atl AL031899 39.40 -45.00 TS 40 0 7 355
1899 NA NA 09:00:00 TS 39.73 -45.03 1012 986 P_____________ AL031899 39.73 -45.03 TS 40 0 6 0
1899 NA NA 12:00:00 TS 40.00 -45.00 40 hurdat_atl 986 975 O_____________ hurdat_atl AL031899 40.00 -45.00 TS 40 0 5 13
1899 NA NA 15:00:00 TS 40.17 -44.89 975 972 P_____________ AL031899 40.17 -44.89 TS 40 0 4 37
1899 NA NA 18:00:00 TS 40.30 -44.70 40 hurdat_atl 977 972 O_____________ hurdat_atl AL031899 40.30 -44.70 TS 40 0 5 50
1899 NA NA 21:00:00 TS 40.47 -44.42 978 978 P_____________ AL031899 40.47 -44.42 TS 40 0 5 57
1899 NA NA 1899-08-29 00:00:00 TS 40.60 -44.10 40 hurdat_atl 987 987 O_____________ hurdat_atl AL031899 40.60 -44.10 TS 40 0 5 72
1899 NA NA 03:00:00 TS 40.63 -43.79 1005 1005 P_____________ AL031899 40.63 -43.79 TS 40 0 5 90
1899 NA NA 06:00:00 TS 40.60 -43.50 40 hurdat_atl 1023 1023 O_____________ hurdat_atl AL031899 40.60 -43.50 TS 40 0 4 101
1899 NA NA 09:00:00 TS 40.55 -43.23 1049 1049 P_____________ AL031899 40.55 -43.23 TS 40 0 4 105
1899 NA NA 12:00:00 TS 40.50 -43.00 40 hurdat_atl 1061 1061 O_____________ hurdat_atl AL031899 40.50 -43.00 TS 40 0 3 101
1899 NA NA 15:00:00 TS 40.49 -42.84 1074 1074 P_____________ AL031899 40.49 -42.84 TS 40 0 2 90
1899 NA NA 18:00:00 TS 40.50 -42.70 40 hurdat_atl 1080 1080 O_____________ hurdat_atl AL031899 40.50 -42.70 TS 40 0 3 88
1899 NA NA 21:00:00 TS 40.50 -42.51 1092 1092 P_____________ AL031899 40.50 -42.51 TS 40 0 3 90
1899 NA NA 1899-08-30 00:00:00 TS 40.50 -42.30 40 hurdat_atl 1105 1105 O_____________ hurdat_atl AL031899 40.50 -42.30 TS 40 0 3 87
1899 NA NA 03:00:00 TS 40.51 -42.10 1118 1118 P_____________ AL031899 40.51 -42.10 TS 40 0 3 90
1899 NA NA 06:00:00 TS 40.50 -41.90 40 hurdat_atl 1130 1130 O_____________ hurdat_atl AL031899 40.50 -41.90 TS 40 0 3 109
1899 NA NA 09:00:00 TS 40.41 -41.69 1150 1150 P_____________ AL031899 40.41 -41.69 TS 40 0 4 123
1899 NA NA 12:00:00 TS 40.30 -41.50 40 hurdat_atl 1170 1170 O_____________ hurdat_atl AL031899 40.30 -41.50 TS 40 0 3 122
1899 NA NA 15:00:00 TS 40.24 -41.34 1190 1190 P_____________ AL031899 40.24 -41.34 TS 40 0 2 114
1899 NA NA 18:00:00 TS 40.20 -41.20 40 hurdat_atl 1196 1196 O_____________ hurdat_atl AL031899 40.20 -41.20 TS 40 0 2 113
1899 NA NA 21:00:00 TS 40.15 -41.06 1210 1210 P_____________ AL031899 40.15 -41.06 TS 40 0 2 114
1899 NA NA 1899-08-31 00:00:00 TS 40.10 -40.90 40 hurdat_atl 1223 1223 O_____________ hurdat_atl AL031899 40.10 -40.90 TS 40 0 3 112
1899 NA NA 03:00:00 TS 40.04 -40.71 1243 1243 P_____________ AL031899 40.04 -40.71 TS 40 0 3 108
1899 NA NA 06:00:00 TS 40.00 -40.50 40 hurdat_atl 1256 1256 O_____________ hurdat_atl AL031899 40.00 -40.50 TS 40 0 3 97
1899 NA NA 09:00:00 TS 40.00 -40.27 1268 1268 P_____________ AL031899 40.00 -40.27 TS 40 0 4 90
1899 NA NA 12:00:00 TS 40.00 -40.00 40 hurdat_atl 1288 1288 O_____________ hurdat_atl AL031899 40.00 -40.00 TS 40 0 5 96
1899 NA NA 15:00:00 TS 39.95 -39.66 1307 1307 P_____________ AL031899 39.95 -39.66 TS 40 0 5 101
1899 NA NA 18:00:00 TS 39.90 -39.30 40 hurdat_atl 1341 1341 O_____________ hurdat_atl AL031899 39.90 -39.30 TS 40 0 5 97
1899 NA NA 21:00:00 TS 39.89 -39.01 1360 1360 P_____________ AL031899 39.89 -39.01 TS 40 0 5 90
1899 NA NA 1899-09-01 00:00:00 TS 39.90 -38.70 40 hurdat_atl 1380 1380 O_____________ hurdat_atl AL031899 39.90 -38.70 TS 40 0 5 90
1899 NA NA 03:00:00 TS 39.89 -38.32 1407 1407 P_____________ AL031899 39.89 -38.32 TS 40 0 6 90
1899 NA NA 06:00:00 TS 39.90 -37.90 40 hurdat_atl 1434 1434 O_____________ hurdat_atl AL031899 39.90 -37.90 TS 40 0 6 84
1899 NA NA 09:00:00 TS 39.96 -37.49 1455 1455 P_____________ AL031899 39.96 -37.49 TS 40 0 7 82
1899 NA NA 12:00:00 TS 40.00 -37.00 40 hurdat_atl 1489 1489 O_____________ hurdat_atl AL031899 40.00 -37.00 TS 40 0 9 89
1899 NA NA 15:00:00 TS 39.97 -36.36 1530 1530 P_____________ AL031899 39.97 -36.36 TS 40 0 10 96
1899 NA NA 18:00:00 TS 39.90 -35.70 40 hurdat_atl 1586 1586 O_____________ hurdat_atl AL031899 39.90 -35.70 TS 40 0 9 101
1899 NA NA 21:00:00 TS 39.81 -35.21 1627 1627 P_____________ AL031899 39.81 -35.21 TS 42 0 8 105
1899 NA NA 1899-09-02 00:00:00 TS 39.70 -34.70 45 hurdat_atl 1668 1668 O_____________ hurdat_atl AL031899 39.70 -34.70 TS 45 0 9 101
1899 NA NA 03:00:00 TS 39.62 -34.02 1724 1724 P_____________ AL031899 39.62 -34.02 TS 47 0 11 101
1899 NA NA 06:00:00 TS 39.50 -33.30 50 hurdat_atl 1780 1780 O_____________ hurdat_atl AL031899 39.50 -33.30 TS 50 0 11 107
1899 NA NA 09:00:00 TS 39.29 -32.61 1842 1837 P_____________ AL031899 39.29 -32.61 TS 52 0 11 116
1899 NA NA 12:00:00 TS 39.00 -32.00 55 hurdat_atl 1837 1783 O_____________ hurdat_atl AL031899 39.00 -32.00 TS 55 0 11 127
1899 NA NA 15:00:00 TS 38.64 -31.50 1776 1729 P_____________ AL031899 38.64 -31.50 TS 57 0 10 135
1899 NA NA 18:00:00 TS 38.30 -31.10 60 hurdat_atl 1729 1694 O_____________ hurdat_atl AL031899 38.30 -31.10 TS 60 0 8 136
1899 NA NA 21:00:00 TS 38.08 -30.80 1694 1660 P_____________ AL031899 38.08 -30.80 TS 62 0 6 130
1899 NA NA 1899-09-03 00:00:00 TS 37.90 -30.50 65 hurdat_atl 1660 1619 O_____________ hurdat_atl AL031899 37.90 -30.50 HU 65 1 7 124
1899 NA NA 03:00:00 TS 37.69 -30.07 1619 1570 P_____________ AL031899 37.69 -30.07 HU 67 1 8 119
1899 NA NA 06:00:00 TS 37.50 -29.60 70 hurdat_atl 1570 1528 O_____________ hurdat_atl AL031899 37.50 -29.60 HU 70 1 8 116
1899 NA NA 09:00:00 TS 37.33 -29.17 1528 1494 P_____________ AL031899 37.33 -29.17 HU 70 1 7 106
1899 NA NA 12:00:00 TS 37.30 -28.70 70 hurdat_atl 1494 1467 O_____________ hurdat_atl AL031899 37.30 -28.70 HU 70 1 8 82
1899 NA NA 15:00:00 TS 37.44 -28.18 1467 1450 P_____________ AL031899 37.44 -28.18 HU 67 1 11 62
1899 NA NA 18:00:00 TS 37.80 -27.50 65 hurdat_atl 1451 1432 O_____________ hurdat_atl AL031899 37.80 -27.50 HU 65 1 15 57
1899 NA NA 21:00:00 TS 38.25 -26.63 1428 1388 P_____________ AL031899 38.25 -26.63 HU 62 0 20 53
1899 NA NA 1899-09-04 00:00:00 ET 39.00 -25.50 60 hurdat_atl 1378 1264 O_____________ hurdat_atl AL031899 39.00 -25.50 EX 60 -4 27 47
1899 NA NA 03:00:00 ET 40.08 -24.14 1256 1104 P_____________ AL031899 40.08 -24.14 EX 57 -4 34 43
1899 NA NA 06:00:00 ET 41.50 -22.50 55 hurdat_atl 1093 914 O_____________ hurdat_atl AL031899 41.50 -22.50 EX 55 -4 41 42
1899 NA NA 09:00:00 ET 43.14 -20.50 906 770 P_____________ AL031899 43.14 -20.50 EX 52 -4 46 40
1899 NA NA 12:00:00 ET 45.00 -18.50 50 hurdat_atl 765 715 O_____________ hurdat_atl AL031899 45.00 -18.50 EX 50 -4 46 34
1899 NA NA 15:00:00 ET 46.97 -16.89 702 485 P_____________ AL031899 46.97 -16.89 EX 47 -4 45 27
1899 NA NA 18:00:00 ET 49.00 -15.50 45 hurdat_atl 472 O_____________ hurdat_atl AL031899 49.00 -15.50 EX 45 -4 44 24